sensor_id;sensor_type;location;lat;lon;timestamp;pressure;altitude;pressure_sealevel;temperature;humidity
20003;BME280;10162;41.600;23.806;2023-05-10T00:00:18;95378.38;;;10.37;100.00
20003;BME280;10162;41.600;23.806;2023-05-10T00:02:44;95392.00;;;10.53;100.00
20003;BME280;10162;41.600;23.806;2023-05-10T00:05:41;95398.47;;;10.57;100.00
20003;BME280;10162;41.600;23.806;2023-05-10T00:08:08;95400.50;;;10.62;100.00
20003;BME280;10162;41.600;23.806;2023-05-10T00:10:34;95387.81;;;10.59;100.00
20003;BME280;10162;41.600;23.806;2023-05-10T00:13:00;95372.56;;;10.41;100.00
20003;BME280;10162;41.600;23.806;2023-05-10T00:18:32;95391.94;;;10.47;100.00
20003;BME280;10162;41.600;23.806;2023-05-10T00:20:58;95380.03;;;10.44;100.00
20003;BME280;10162;41.600;23.806;2023-05-10T00:23:26;95368.28;;;10.33;100.00
20003;BME280;10162;41.600;23.806;2023-05-10T00:26:08;95360.69;;;10.39;100.00
20003;BME280;10162;41.600;23.806;2023-05-10T00:28:36;95329.88;;;10.13;100.00
20003;BME280;10162;41.600;23.806;2023-05-10T00:31:02;95359.13;;;10.44;100.00
20003;BME280;10162;41.600;23.806;2023-05-10T00:33:29;95360.88;;;10.58;100.00
20003;BME280;10162;41.600;23.806;2023-05-10T00:36:06;95351.31;;;10.72;100.00
20003;BME280;10162;41.600;23.806;2023-05-10T00:38:33;95359.94;;;10.72;100.00
20003;BME280;10162;41.600;23.806;2023-05-10T00:40:59;95374.88;;;10.78;100.00
20003;BME280;10162;41.600;23.806;2023-05-10T00:43:30;95365.81;;;10.74;100.00
20003;BME280;10162;41.600;23.806;2023-05-10T00:46:05;95373.50;;;10.83;100.00
20003;BME280;10162;41.600;23.806;2023-05-10T00:48:31;95355.25;;;10.61;100.00
20003;BME280;10162;41.600;23.806;2023-05-10T00:50:57;95340.50;;;10.54;100.00
20003;BME280;10162;41.600;23.806;2023-05-10T00:53:24;95356.63;;;10.57;100.00
20003;BME280;10162;41.600;23.806;2023-05-10T00:55:55;95353.38;;;10.55;100.00
20003;BME280;10162;41.600;23.806;2023-05-10T00:58:22;95357.19;;;10.53;100.00
20003;BME280;10162;41.600;23.806;2023-05-10T01:00:49;95358.19;;;10.52;100.00
20003;BME280;10162;41.600;23.806;2023-05-10T01:03:16;95353.78;;;10.52;100.00
20003;BME280;10162;41.600;23.806;2023-05-10T01:05:44;95373.63;;;10.47;100.00
20003;BME280;10162;41.600;23.806;2023-05-10T01:08:10;95325.66;;;10.33;100.00
20003;BME280;10162;41.600;23.806;2023-05-10T01:10:36;95365.53;;;10.42;100.00
20003;BME280;10162;41.600;23.806;2023-05-10T01:13:02;95357.56;;;10.50;100.00
20003;BME280;10162;41.600;23.806;2023-05-10T01:18:40;95346.63;;;10.40;100.00
20003;BME280;10162;41.600;23.806;2023-05-10T01:24:25;95375.50;;;10.53;100.00
20003;BME280;10162;41.600;23.806;2023-05-10T01:33:13;95359.38;;;10.49;100.00
20003;BME280;10162;41.600;23.806;2023-05-10T01:38:45;95364.72;;;10.62;100.00
20003;BME280;10162;41.600;23.806;2023-05-10T01:44:27;95333.44;;;10.26;100.00
20003;BME280;10162;41.600;23.806;2023-05-10T01:47:05;95339.72;;;10.32;100.00
20003;BME280;10162;41.600;23.806;2023-05-10T01:49:46;95349.09;;;10.26;100.00
20003;BME280;10162;41.600;23.806;2023-05-10T01:52:16;95349.41;;;10.38;100.00
20003;BME280;10162;41.600;23.806;2023-05-10T01:55:20;95352.97;;;10.30;100.00
20003;BME280;10162;41.600;23.806;2023-05-10T01:57:48;95331.38;;;10.22;100.00
20003;BME280;10162;41.600;23.806;2023-05-10T02:00:16;95320.69;;;10.17;100.00
20003;BME280;10162;41.600;23.806;2023-05-10T02:02:47;95326.00;;;10.09;100.00
20003;BME280;10162;41.600;23.806;2023-05-10T02:05:17;95340.97;;;10.36;100.00
20003;BME280;10162;41.600;23.806;2023-05-10T02:07:46;95349.34;;;10.31;100.00
20003;BME280;10162;41.600;23.806;2023-05-10T02:10:13;95338.69;;;10.12;100.00
20003;BME280;10162;41.600;23.806;2023-05-10T02:12:46;95331.63;;;10.27;100.00
20003;BME280;10162;41.600;23.806;2023-05-10T02:15:19;95337.25;;;10.24;100.00
20003;BME280;10162;41.600;23.806;2023-05-10T02:17:47;95330.88;;;10.12;100.00
20003;BME280;10162;41.600;23.806;2023-05-10T02:20:14;95339.75;;;9.96;100.00
20003;BME280;10162;41.600;23.806;2023-05-10T02:22:41;95322.63;;;9.93;100.00
20003;BME280;10162;41.600;23.806;2023-05-10T02:28:00;95359.31;;;10.21;100.00
20003;BME280;10162;41.600;23.806;2023-05-10T02:30:28;95355.88;;;10.21;100.00
20003;BME280;10162;41.600;23.806;2023-05-10T02:32:56;95334.41;;;10.04;100.00
20003;BME280;10162;41.600;23.806;2023-05-10T02:35:25;95335.19;;;10.19;100.00
20003;BME280;10162;41.600;23.806;2023-05-10T02:37:52;95339.94;;;10.37;100.00
20003;BME280;10162;41.600;23.806;2023-05-10T02:40:19;95359.06;;;10.38;100.00
20003;BME280;10162;41.600;23.806;2023-05-10T02:42:48;95335.38;;;10.18;100.00
20003;BME280;10162;41.600;23.806;2023-05-10T02:45:28;95317.00;;;10.11;100.00
20003;BME280;10162;41.600;23.806;2023-05-10T02:47:56;95328.78;;;10.22;100.00
20003;BME280;10162;41.600;23.806;2023-05-10T02:50:22;95323.94;;;10.19;100.00
20003;BME280;10162;41.600;23.806;2023-05-10T02:52:51;95314.66;;;10.16;100.00
20003;BME280;10162;41.600;23.806;2023-05-10T02:55:25;95318.97;;;10.09;100.00
20003;BME280;10162;41.600;23.806;2023-05-10T02:58:00;95319.53;;;10.05;100.00
20003;BME280;10162;41.600;23.806;2023-05-10T03:00:27;95345.69;;;10.26;100.00
20003;BME280;10162;41.600;23.806;2023-05-10T03:02:54;95334.06;;;10.28;100.00
20003;BME280;10162;41.600;23.806;2023-05-10T03:05:22;95355.91;;;10.42;100.00
20003;BME280;10162;41.600;23.806;2023-05-10T03:07:48;95300.50;;;10.11;100.00
20003;BME280;10162;41.600;23.806;2023-05-10T03:10:14;95347.19;;;10.35;100.00
20003;BME280;10162;41.600;23.806;2023-05-10T03:13:13;95334.03;;;10.07;100.00
20003;BME280;10162;41.600;23.806;2023-05-10T03:16:08;95356.16;;;10.11;100.00
20003;BME280;10162;41.600;23.806;2023-05-10T03:19:02;95334.78;;;10.01;100.00
20003;BME280;10162;41.600;23.806;2023-05-10T03:21:31;95359.69;;;10.18;100.00
20003;BME280;10162;41.600;23.806;2023-05-10T03:24:05;95345.53;;;10.13;100.00
20003;BME280;10162;41.600;23.806;2023-05-10T03:26:38;95347.78;;;10.16;100.00
20003;BME280;10162;41.600;23.806;2023-05-10T03:29:12;95325.91;;;9.81;100.00
20003;BME280;10162;41.600;23.806;2023-05-10T03:32:11;95360.69;;;10.17;100.00
20003;BME280;10162;41.600;23.806;2023-05-10T03:34:41;95353.88;;;10.02;100.00
20003;BME280;10162;41.600;23.806;2023-05-10T03:37:08;95359.69;;;10.04;100.00
20003;BME280;10162;41.600;23.806;2023-05-10T03:39:36;95359.94;;;10.09;100.00
20003;BME280;10162;41.600;23.806;2023-05-10T03:42:04;95344.03;;;10.04;100.00
20003;BME280;10162;41.600;23.806;2023-05-10T03:44:31;95338.44;;;10.07;100.00
20003;BME280;10162;41.600;23.806;2023-05-10T03:46:58;95345.00;;;10.17;100.00
20003;BME280;10162;41.600;23.806;2023-05-10T03:49:25;95357.25;;;10.17;100.00
20003;BME280;10162;41.600;23.806;2023-05-10T03:51:50;95323.94;;;10.04;100.00
20003;BME280;10162;41.600;23.806;2023-05-10T03:54:16;95351.53;;;10.28;100.00
20003;BME280;10162;41.600;23.806;2023-05-10T03:56:48;95343.13;;;10.32;100.00
20003;BME280;10162;41.600;23.806;2023-05-10T03:59:15;95361.38;;;10.47;100.00
20003;BME280;10162;41.600;23.806;2023-05-10T04:01:41;95361.38;;;10.47;100.00
20003;BME280;10162;41.600;23.806;2023-05-10T04:04:08;95359.69;;;10.40;100.00
20003;BME280;10162;41.600;23.806;2023-05-10T04:06:41;95366.78;;;10.46;100.00
20003;BME280;10162;41.600;23.806;2023-05-10T04:09:06;95371.09;;;10.53;100.00
20003;BME280;10162;41.600;23.806;2023-05-10T04:11:33;95350.63;;;10.35;100.00
20003;BME280;10162;41.600;23.806;2023-05-10T04:14:00;95367.66;;;10.31;100.00
20003;BME280;10162;41.600;23.806;2023-05-10T04:16:31;95377.50;;;10.29;100.00
20003;BME280;10162;41.600;23.806;2023-05-10T04:18:56;95361.44;;;10.32;100.00
20003;BME280;10162;41.600;23.806;2023-05-10T04:21:22;95388.63;;;10.59;100.00
20003;BME280;10162;41.600;23.806;2023-05-10T04:23:48;95364.59;;;10.49;100.00
20003;BME280;10162;41.600;23.806;2023-05-10T04:26:22;95380.28;;;10.70;100.00
20003;BME280;10162;41.600;23.806;2023-05-10T04:28:48;95368.75;;;10.65;100.00
20003;BME280;10162;41.600;23.806;2023-05-10T04:31:14;95359.72;;;10.67;100.00
20003;BME280;10162;41.600;23.806;2023-05-10T04:33:40;95376.28;;;10.74;100.00
20003;BME280;10162;41.600;23.806;2023-05-10T04:36:24;95390.16;;;11.03;100.00
20003;BME280;10162;41.600;23.806;2023-05-10T04:38:50;95380.47;;;10.97;100.00
20003;BME280;10162;41.600;23.806;2023-05-10T04:41:16;95376.75;;;10.85;100.00
20003;BME280;10162;41.600;23.806;2023-05-10T04:43:42;95382.31;;;11.03;100.00
20003;BME280;10162;41.600;23.806;2023-05-10T04:46:44;95395.34;;;11.24;100.00
20003;BME280;10162;41.600;23.806;2023-05-10T04:49:12;95350.34;;;11.07;100.00
20003;BME280;10162;41.600;23.806;2023-05-10T04:51:37;95376.09;;;11.38;100.00
20003;BME280;10162;41.600;23.806;2023-05-10T04:54:04;95356.38;;;11.08;100.00
20003;BME280;10162;41.600;23.806;2023-05-10T04:56:32;95372.44;;;11.33;100.00
20003;BME280;10162;41.600;23.806;2023-05-10T04:58:58;95363.19;;;11.37;100.00
20003;BME280;10162;41.600;23.806;2023-05-10T05:01:24;95358.31;;;11.27;100.00
20003;BME280;10162;41.600;23.806;2023-05-10T05:03:50;95371.41;;;11.34;100.00
20003;BME280;10162;41.600;23.806;2023-05-10T05:09:36;95355.97;;;11.39;100.00
20003;BME280;10162;41.600;23.806;2023-05-10T05:12:02;95379.25;;;11.62;100.00
20003;BME280;10162;41.600;23.806;2023-05-10T05:14:28;95369.66;;;11.41;100.00
20003;BME280;10162;41.600;23.806;2023-05-10T05:17:07;95404.00;;;11.59;100.00
20003;BME280;10162;41.600;23.806;2023-05-10T05:19:33;95388.69;;;11.56;100.00
20003;BME280;10162;41.600;23.806;2023-05-10T05:21:59;95391.53;;;11.61;100.00
20003;BME280;10162;41.600;23.806;2023-05-10T05:24:25;95375.03;;;11.26;100.00
20003;BME280;10162;41.600;23.806;2023-05-10T05:26:50;95382.81;;;11.19;100.00
20003;BME280;10162;41.600;23.806;2023-05-10T05:29:17;95386.91;;;11.29;100.00
20003;BME280;10162;41.600;23.806;2023-05-10T05:31:42;95394.66;;;11.43;100.00
20003;BME280;10162;41.600;23.806;2023-05-10T05:34:08;95377.13;;;11.44;100.00
20003;BME280;10162;41.600;23.806;2023-05-10T05:36:38;95395.69;;;11.49;100.00
20003;BME280;10162;41.600;23.806;2023-05-10T05:39:04;95405.22;;;11.63;100.00
20003;BME280;10162;41.600;23.806;2023-05-10T05:41:30;95380.66;;;11.64;100.00
20003;BME280;10162;41.600;23.806;2023-05-10T05:43:55;95394.59;;;11.71;100.00
20003;BME280;10162;41.600;23.806;2023-05-10T05:46:38;95398.66;;;11.80;100.00
20003;BME280;10162;41.600;23.806;2023-05-10T05:49:06;95399.09;;;11.84;100.00
20003;BME280;10162;41.600;23.806;2023-05-10T05:51:32;95413.66;;;11.99;100.00
20003;BME280;10162;41.600;23.806;2023-05-10T05:53:58;95368.53;;;12.04;100.00
20003;BME280;10162;41.600;23.806;2023-05-10T05:56:34;95399.25;;;12.36;100.00
20003;BME280;10162;41.600;23.806;2023-05-10T05:59:01;95394.00;;;12.23;100.00
20003;BME280;10162;41.600;23.806;2023-05-10T06:01:27;95410.09;;;12.20;100.00
20003;BME280;10162;41.600;23.806;2023-05-10T06:03:53;95383.44;;;11.63;100.00
20003;BME280;10162;41.600;23.806;2023-05-10T06:06:19;95425.56;;;11.95;100.00
20003;BME280;10162;41.600;23.806;2023-05-10T06:08:45;95417.72;;;12.09;100.00
20003;BME280;10162;41.600;23.806;2023-05-10T06:11:11;95415.50;;;11.65;100.00
20003;BME280;10162;41.600;23.806;2023-05-10T06:13:36;95396.56;;;12.10;100.00
20003;BME280;10162;41.600;23.806;2023-05-10T06:16:07;95405.19;;;11.97;100.00
20003;BME280;10162;41.600;23.806;2023-05-10T06:18:33;95420.41;;;12.22;100.00
20003;BME280;10162;41.600;23.806;2023-05-10T06:20:59;95395.16;;;12.01;100.00
20003;BME280;10162;41.600;23.806;2023-05-10T06:23:26;95425.22;;;12.12;100.00
20003;BME280;10162;41.600;23.806;2023-05-10T06:26:00;95418.72;;;12.08;100.00
20003;BME280;10162;41.600;23.806;2023-05-10T06:28:26;95399.34;;;11.95;100.00
20003;BME280;10162;41.600;23.806;2023-05-10T06:30:52;95417.28;;;11.98;100.00
20003;BME280;10162;41.600;23.806;2023-05-10T06:33:17;95423.09;;;11.87;100.00
20003;BME280;10162;41.600;23.806;2023-05-10T06:35:45;95423.31;;;11.92;100.00
20003;BME280;10162;41.600;23.806;2023-05-10T06:38:11;95404.34;;;11.90;100.00
20003;BME280;10162;41.600;23.806;2023-05-10T06:40:36;95422.94;;;12.02;100.00
20003;BME280;10162;41.600;23.806;2023-05-10T06:43:03;95413.63;;;11.86;100.00
20003;BME280;10162;41.600;23.806;2023-05-10T06:45:28;95422.19;;;12.15;100.00
20003;BME280;10162;41.600;23.806;2023-05-10T06:47:55;95435.13;;;12.23;100.00
20003;BME280;10162;41.600;23.806;2023-05-10T06:50:21;95439.97;;;12.26;100.00
20003;BME280;10162;41.600;23.806;2023-05-10T06:52:47;95442.34;;;12.14;100.00
20003;BME280;10162;41.600;23.806;2023-05-10T06:55:13;95436.03;;;11.95;100.00
20003;BME280;10162;41.600;23.806;2023-05-10T06:57:39;95435.22;;;11.95;100.00
20003;BME280;10162;41.600;23.806;2023-05-10T07:00:05;95426.56;;;11.94;100.00
20003;BME280;10162;41.600;23.806;2023-05-10T07:02:31;95438.63;;;11.89;100.00
20003;BME280;10162;41.600;23.806;2023-05-10T07:07:48;95439.28;;;12.04;100.00
20003;BME280;10162;41.600;23.806;2023-05-10T07:10:13;95436.91;;;12.16;100.00
20003;BME280;10162;41.600;23.806;2023-05-10T07:12:39;95439.38;;;12.37;100.00
20003;BME280;10162;41.600;23.806;2023-05-10T07:15:22;95445.09;;;12.60;100.00
20003;BME280;10162;41.600;23.806;2023-05-10T07:17:49;95449.72;;;12.52;100.00
20003;BME280;10162;41.600;23.806;2023-05-10T07:20:15;95443.91;;;12.69;100.00
20003;BME280;10162;41.600;23.806;2023-05-10T07:22:41;95443.09;;;12.89;100.00
20003;BME280;10162;41.600;23.806;2023-05-10T07:25:07;95463.50;;;13.06;100.00
20003;BME280;10162;41.600;23.806;2023-05-10T07:27:33;95448.97;;;12.91;100.00
20003;BME280;10162;41.600;23.806;2023-05-10T07:29:59;95448.75;;;12.99;100.00
20003;BME280;10162;41.600;23.806;2023-05-10T07:32:26;95450.00;;;13.03;100.00
20003;BME280;10162;41.600;23.806;2023-05-10T07:35:10;95454.19;;;12.58;100.00
20003;BME280;10162;41.600;23.806;2023-05-10T07:37:35;95453.75;;;12.61;100.00
20003;BME280;10162;41.600;23.806;2023-05-10T07:40:01;95437.81;;;12.56;100.00
20003;BME280;10162;41.600;23.806;2023-05-10T07:42:27;95447.97;;;12.85;100.00
20003;BME280;10162;41.600;23.806;2023-05-10T07:44:53;95462.50;;;13.07;100.00
20003;BME280;10162;41.600;23.806;2023-05-10T07:47:19;95451.81;;;13.02;100.00
20003;BME280;10162;41.600;23.806;2023-05-10T07:49:44;95449.00;;;13.23;100.00
20003;BME280;10162;41.600;23.806;2023-05-10T07:52:10;95473.00;;;13.07;100.00
20003;BME280;10162;41.600;23.806;2023-05-10T07:54:38;95453.22;;;13.44;100.00
20003;BME280;10162;41.600;23.806;2023-05-10T07:57:04;95458.19;;;13.79;100.00
20003;BME280;10162;41.600;23.806;2023-05-10T07:59:30;95450.63;;;14.08;100.00
20003;BME280;10162;41.600;23.806;2023-05-10T08:01:55;95444.09;;;13.67;100.00
20003;BME280;10162;41.600;23.806;2023-05-10T08:04:21;95467.19;;;14.16;100.00
20003;BME280;10162;41.600;23.806;2023-05-10T08:06:49;95477.22;;;14.32;100.00
20003;BME280;10162;41.600;23.806;2023-05-10T08:09:15;95449.28;;;13.93;100.00
20003;BME280;10162;41.600;23.806;2023-05-10T08:11:42;95445.88;;;13.79;100.00
20003;BME280;10162;41.600;23.806;2023-05-10T08:14:08;95464.13;;;13.41;100.00
20003;BME280;10162;41.600;23.806;2023-05-10T08:16:34;95461.88;;;12.99;100.00
20003;BME280;10162;41.600;23.806;2023-05-10T08:19:00;95463.66;;;12.52;100.00
20003;BME280;10162;41.600;23.806;2023-05-10T08:21:26;95437.63;;;12.57;100.00
20003;BME280;10162;41.600;23.806;2023-05-10T08:23:51;95461.69;;;13.07;100.00
20003;BME280;10162;41.600;23.806;2023-05-10T08:26:20;95466.31;;;13.11;100.00
20003;BME280;10162;41.600;23.806;2023-05-10T08:28:46;95476.00;;;12.78;100.00
20003;BME280;10162;41.600;23.806;2023-05-10T08:31:12;95450.84;;;12.23;100.00
20003;BME280;10162;41.600;23.806;2023-05-10T08:33:38;95498.94;;;12.50;100.00
20003;BME280;10162;41.600;23.806;2023-05-10T08:36:14;95470.78;;;12.17;100.00
20003;BME280;10162;41.600;23.806;2023-05-10T08:38:45;95452.50;;;12.43;100.00
20003;BME280;10162;41.600;23.806;2023-05-10T08:41:11;95466.28;;;12.52;100.00
20003;BME280;10162;41.600;23.806;2023-05-10T08:43:38;95453.59;;;12.08;100.00
20003;BME280;10162;41.600;23.806;2023-05-10T08:46:07;95468.47;;;12.55;100.00
20003;BME280;10162;41.600;23.806;2023-05-10T08:48:37;95466.03;;;12.40;100.00
20003;BME280;10162;41.600;23.806;2023-05-10T08:51:04;95485.75;;;13.17;100.00
20003;BME280;10162;41.600;23.806;2023-05-10T08:53:33;95478.69;;;13.31;100.00
20003;BME280;10162;41.600;23.806;2023-05-10T08:56:13;95467.13;;;13.64;100.00
20003;BME280;10162;41.600;23.806;2023-05-10T08:58:41;95482.97;;;14.16;100.00
20003;BME280;10162;41.600;23.806;2023-05-10T09:01:08;95474.19;;;13.84;100.00
20003;BME280;10162;41.600;23.806;2023-05-10T09:03:35;95480.56;;;14.07;100.00
20003;BME280;10162;41.600;23.806;2023-05-10T09:06:04;95466.41;;;14.02;100.00
20003;BME280;10162;41.600;23.806;2023-05-10T09:08:31;95464.69;;;14.40;100.00
20003;BME280;10162;41.600;23.806;2023-05-10T09:10:57;95462.16;;;14.07;100.00
20003;BME280;10162;41.600;23.806;2023-05-10T09:13:23;95477.84;;;14.40;100.00
20003;BME280;10162;41.600;23.806;2023-05-10T09:16:00;95460.47;;;14.26;100.00
20003;BME280;10162;41.600;23.806;2023-05-10T09:18:26;95448.38;;;14.95;100.00
20003;BME280;10162;41.600;23.806;2023-05-10T09:20:52;95475.97;;;15.85;100.00
20003;BME280;10162;41.600;23.806;2023-05-10T09:23:18;95447.91;;;15.54;100.00
20003;BME280;10162;41.600;23.806;2023-05-10T09:26:01;95467.00;;;14.93;100.00
20003;BME280;10162;41.600;23.806;2023-05-10T09:28:32;95441.06;;;14.97;100.00
20003;BME280;10162;41.600;23.806;2023-05-10T09:30:58;95460.06;;;15.55;100.00
20003;BME280;10162;41.600;23.806;2023-05-10T09:33:25;95436.81;;;15.88;98.85
20003;BME280;10162;41.600;23.806;2023-05-10T09:36:09;95425.66;;;16.23;95.67
20003;BME280;10162;41.600;23.806;2023-05-10T09:38:48;95443.38;;;16.16;88.63
20003;BME280;10162;41.600;23.806;2023-05-10T09:41:24;95433.06;;;16.14;86.46
20003;BME280;10162;41.600;23.806;2023-05-10T09:43:55;95453.56;;;16.12;83.25
20003;BME280;10162;41.600;23.806;2023-05-10T09:46:26;95442.59;;;16.15;82.43
20003;BME280;10162;41.600;23.806;2023-05-10T09:48:52;95444.28;;;15.91;88.82
20003;BME280;10162;41.600;23.806;2023-05-10T09:51:22;95446.75;;;16.52;84.99
20003;BME280;10162;41.600;23.806;2023-05-10T09:53:49;95432.78;;;16.82;79.04
20003;BME280;10162;41.600;23.806;2023-05-10T09:56:49;95419.47;;;16.59;74.80
20003;BME280;10162;41.600;23.806;2023-05-10T09:59:15;95433.28;;;16.61;72.96
20003;BME280;10162;41.600;23.806;2023-05-10T10:01:49;95413.22;;;17.24;78.36
20003;BME280;10162;41.600;23.806;2023-05-10T10:04:15;95437.50;;;16.80;68.95
20003;BME280;10162;41.600;23.806;2023-05-10T10:06:43;95418.38;;;17.08;77.22
20003;BME280;10162;41.600;23.806;2023-05-10T10:09:13;95426.03;;;16.98;74.49
20003;BME280;10162;41.600;23.806;2023-05-10T10:11:39;95395.50;;;17.02;73.63
20003;BME280;10162;41.600;23.806;2023-05-10T10:14:06;95393.66;;;16.90;79.93
20003;BME280;10162;41.600;23.806;2023-05-10T10:16:33;95425.19;;;17.50;75.78
20003;BME280;10162;41.600;23.806;2023-05-10T10:19:00;95420.91;;;17.49;75.59
20003;BME280;10162;41.600;23.806;2023-05-10T10:21:26;95423.44;;;17.32;76.97
20003;BME280;10162;41.600;23.806;2023-05-10T10:23:52;95406.22;;;17.30;75.83
20003;BME280;10162;41.600;23.806;2023-05-10T10:26:48;95421.16;;;17.36;74.85
20003;BME280;10162;41.600;23.806;2023-05-10T10:29:20;95429.66;;;17.38;77.02
20003;BME280;10162;41.600;23.806;2023-05-10T10:31:57;95416.50;;;16.55;72.69
20003;BME280;10162;41.600;23.806;2023-05-10T10:34:29;95411.88;;;16.80;76.67
20003;BME280;10162;41.600;23.806;2023-05-10T10:40:30;95420.03;;;16.49;77.87
20003;BME280;10162;41.600;23.806;2023-05-10T10:42:57;95388.34;;;16.19;75.88
20003;BME280;10162;41.600;23.806;2023-05-10T10:45:25;95402.00;;;15.98;76.22
20003;BME280;10162;41.600;23.806;2023-05-10T10:48:22;95424.53;;;16.30;74.37
20003;BME280;10162;41.600;23.806;2023-05-10T10:50:57;95411.81;;;15.54;77.29
20003;BME280;10162;41.600;23.806;2023-05-10T10:53:26;95403.41;;;15.39;75.13
20003;BME280;10162;41.600;23.806;2023-05-10T10:56:05;95417.69;;;15.50;74.16
20003;BME280;10162;41.600;23.806;2023-05-10T10:58:34;95430.91;;;15.25;74.76
20003;BME280;10162;41.600;23.806;2023-05-10T11:01:16;95432.53;;;15.26;78.16
20003;BME280;10162;41.600;23.806;2023-05-10T11:09:28;95393.72;;;15.15;78.88
20003;BME280;10162;41.600;23.806;2023-05-10T11:11:54;95430.53;;;15.21;77.95
20003;BME280;10162;41.600;23.806;2023-05-10T11:14:24;95399.97;;;15.20;82.50
20003;BME280;10162;41.600;23.806;2023-05-10T11:20:10;95403.41;;;15.82;78.28
20003;BME280;10162;41.600;23.806;2023-05-10T11:22:50;95401.13;;;15.86;78.27
20003;BME280;10162;41.600;23.806;2023-05-10T11:25:26;95397.81;;;15.72;76.13
20003;BME280;10162;41.600;23.806;2023-05-10T11:28:02;95393.81;;;15.69;75.44
20003;BME280;10162;41.600;23.806;2023-05-10T11:30:30;95408.97;;;15.74;73.64
20003;BME280;10162;41.600;23.806;2023-05-10T11:32:56;95399.97;;;15.63;71.18
20003;BME280;10162;41.600;23.806;2023-05-10T11:35:27;95403.56;;;16.05;73.33
20003;BME280;10162;41.600;23.806;2023-05-10T11:37:53;95385.63;;;16.26;72.78
20003;BME280;10162;41.600;23.806;2023-05-10T11:40:21;95375.97;;;15.72;71.76
20003;BME280;10162;41.600;23.806;2023-05-10T11:42:46;95397.63;;;15.06;71.84
20003;BME280;10162;41.600;23.806;2023-05-10T11:45:12;95380.91;;;15.61;72.33
20003;BME280;10162;41.600;23.806;2023-05-10T11:47:38;95376.31;;;15.93;70.78
20003;BME280;10162;41.600;23.806;2023-05-10T11:50:05;95376.78;;;15.47;71.08
20003;BME280;10162;41.600;23.806;2023-05-10T11:52:36;95382.09;;;15.84;73.84
20003;BME280;10162;41.600;23.806;2023-05-10T11:55:35;95405.81;;;15.84;72.96
20003;BME280;10162;41.600;23.806;2023-05-10T11:58:01;95392.78;;;16.37;71.50
20003;BME280;10162;41.600;23.806;2023-05-10T12:00:28;95394.56;;;16.25;70.48
20003;BME280;10162;41.600;23.806;2023-05-10T12:02:54;95394.19;;;16.39;70.09
20003;BME280;10162;41.600;23.806;2023-05-10T12:08:29;95391.06;;;16.12;71.81
20003;BME280;10162;41.600;23.806;2023-05-10T12:11:06;95379.34;;;15.36;71.20
20003;BME280;10162;41.600;23.806;2023-05-10T12:13:41;95387.88;;;15.74;74.16
20003;BME280;10162;41.600;23.806;2023-05-10T12:19:38;95388.81;;;16.46;71.74
20003;BME280;10162;41.600;23.806;2023-05-10T12:22:05;95351.34;;;16.26;71.45
20003;BME280;10162;41.600;23.806;2023-05-10T12:24:34;95390.84;;;16.62;71.60
20003;BME280;10162;41.600;23.806;2023-05-10T12:27:04;95382.38;;;15.94;69.22
20003;BME280;10162;41.600;23.806;2023-05-10T12:29:30;95393.81;;;15.69;70.40
20003;BME280;10162;41.600;23.806;2023-05-10T12:31:58;95385.97;;;15.63;71.08
20003;BME280;10162;41.600;23.806;2023-05-10T12:34:32;95383.16;;;16.12;70.97
20003;BME280;10162;41.600;23.806;2023-05-10T12:37:03;95355.00;;;16.25;72.97
20003;BME280;10162;41.600;23.806;2023-05-10T12:47:54;95376.06;;;16.73;69.24
20003;BME280;10162;41.600;23.806;2023-05-10T12:50:51;95368.66;;;16.63;72.40
20003;BME280;10162;41.600;23.806;2023-05-10T12:53:49;95357.88;;;15.57;70.21
20003;BME280;10162;41.600;23.806;2023-05-10T12:56:58;95362.28;;;14.95;72.18
20003;BME280;10162;41.600;23.806;2023-05-10T13:00:00;95329.88;;;15.19;70.91
20003;BME280;10162;41.600;23.806;2023-05-10T13:02:59;95354.31;;;16.59;69.87
20003;BME280;10162;41.600;23.806;2023-05-10T13:09:58;95337.84;;;16.99;67.87
20003;BME280;10162;41.600;23.806;2023-05-10T13:12:56;95330.50;;;17.47;66.13
20003;BME280;10162;41.600;23.806;2023-05-10T13:15:57;95346.28;;;17.94;63.88
20003;BME280;10162;41.600;23.806;2023-05-10T13:18:54;95336.19;;;17.56;64.36
20003;BME280;10162;41.600;23.806;2023-05-10T17:14:59;95339.16;;;13.78;100.00
20003;BME280;10162;41.600;23.806;2023-05-10T17:17:28;95347.25;;;13.77;100.00
20003;BME280;10162;41.600;23.806;2023-05-10T17:19:54;95341.66;;;13.60;100.00
20003;BME280;10162;41.600;23.806;2023-05-10T17:22:21;95347.75;;;13.54;100.00
20003;BME280;10162;41.600;23.806;2023-05-10T17:27:51;95362.53;;;13.35;100.00
20003;BME280;10162;41.600;23.806;2023-05-10T17:30:16;95351.84;;;13.37;100.00
20003;BME280;10162;41.600;23.806;2023-05-10T17:32:47;95337.34;;;13.21;100.00
20003;BME280;10162;41.600;23.806;2023-05-10T17:39:06;95363.56;;;13.28;100.00
20003;BME280;10162;41.600;23.806;2023-05-10T17:41:33;95367.84;;;13.15;100.00
20003;BME280;10162;41.600;23.806;2023-05-10T17:43:59;95363.78;;;13.26;100.00
20003;BME280;10162;41.600;23.806;2023-05-10T17:49:51;95373.66;;;13.17;100.00
20003;BME280;10162;41.600;23.806;2023-05-10T17:52:17;95384.38;;;13.22;100.00
20003;BME280;10162;41.600;23.806;2023-05-10T17:54:42;95393.66;;;13.12;99.84
20003;BME280;10162;41.600;23.806;2023-05-10T17:57:08;95376.72;;;13.21;99.24
20003;BME280;10162;41.600;23.806;2023-05-10T17:59:34;95371.88;;;12.98;100.00
20003;BME280;10162;41.600;23.806;2023-05-10T18:02:00;95369.81;;;13.07;100.00
20003;BME280;10162;41.600;23.806;2023-05-10T18:04:27;95376.69;;;13.08;100.00